sensor_id;sensor_type;location;lat;lon;timestamp;temperature;humidity
43185;DHT22;28803;52.308;19.096;2022-09-20T00:01:08;8.20;99.90
43185;DHT22;28803;52.308;19.096;2022-09-20T00:03:39;8.20;99.90
43185;DHT22;28803;52.308;19.096;2022-09-20T00:06:08;8.10;99.90
43185;DHT22;28803;52.308;19.096;2022-09-20T00:08:36;8.10;99.90
43185;DHT22;28803;52.308;19.096;2022-09-20T00:11:03;8.10;99.90
43185;DHT22;28803;52.308;19.096;2022-09-20T00:13:34;8.10;99.90
43185;DHT22;28803;52.308;19.096;2022-09-20T00:16:05;8.00;99.90
43185;DHT22;28803;52.308;19.096;2022-09-20T00:18:33;8.10;99.90
43185;DHT22;28803;52.308;19.096;2022-09-20T00:21:00;8.00;99.90
43185;DHT22;28803;52.308;19.096;2022-09-20T00:23:27;8.10;99.90
43185;DHT22;28803;52.308;19.096;2022-09-20T00:26:03;8.00;99.90
43185;DHT22;28803;52.308;19.096;2022-09-20T00:28:30;8.00;99.90
43185;DHT22;28803;52.308;19.096;2022-09-20T00:30:58;8.00;99.90
43185;DHT22;28803;52.308;19.096;2022-09-20T00:33:25;8.10;99.90
43185;DHT22;28803;52.308;19.096;2022-09-20T00:36:15;8.10;99.90
43185;DHT22;28803;52.308;19.096;2022-09-20T00:38:42;8.20;99.90
43185;DHT22;28803;52.308;19.096;2022-09-20T00:41:09;8.20;99.90
43185;DHT22;28803;52.308;19.096;2022-09-20T00:43:38;8.20;99.90
43185;DHT22;28803;52.308;19.096;2022-09-20T00:49:16;8.20;99.90
43185;DHT22;28803;52.308;19.096;2022-09-20T00:51:47;8.30;99.90
43185;DHT22;28803;52.308;19.096;2022-09-20T00:54:17;8.30;99.90
43185;DHT22;28803;52.308;19.096;2022-09-20T00:56:46;8.40;99.90
43185;DHT22;28803;52.308;19.096;2022-09-20T00:59:28;8.40;99.90
43185;DHT22;28803;52.308;19.096;2022-09-20T01:02:09;8.40;99.90
43185;DHT22;28803;52.308;19.096;2022-09-20T01:04:39;8.40;99.90
43185;DHT22;28803;52.308;19.096;2022-09-20T01:07:08;8.30;99.90
43185;DHT22;28803;52.308;19.096;2022-09-20T01:09:36;8.30;99.90
43185;DHT22;28803;52.308;19.096;2022-09-20T01:12:06;8.20;99.90
43185;DHT22;28803;52.308;19.096;2022-09-20T01:14:35;8.20;99.90
43185;DHT22;28803;52.308;19.096;2022-09-20T01:17:04;8.20;99.90
43185;DHT22;28803;52.308;19.096;2022-09-20T01:20:03;8.20;99.90
43185;DHT22;28803;52.308;19.096;2022-09-20T01:27:52;8.20;99.90
43185;DHT22;28803;52.308;19.096;2022-09-20T01:30:22;8.20;99.90
43185;DHT22;28803;52.308;19.096;2022-09-20T01:33:01;8.20;99.90
43185;DHT22;28803;52.308;19.096;2022-09-20T01:35:32;8.20;99.90
43185;DHT22;28803;52.308;19.096;2022-09-20T01:43:55;8.10;99.90
43185;DHT22;28803;52.308;19.096;2022-09-20T01:46:29;8.20;99.90
43185;DHT22;28803;52.308;19.096;2022-09-20T02:00:09;8.00;99.90
43185;DHT22;28803;52.308;19.096;2022-09-20T02:09:06;7.90;99.90
43185;DHT22;28803;52.308;19.096;2022-09-20T02:17:13;7.70;99.90
43185;DHT22;28803;52.308;19.096;2022-09-20T02:20:05;7.70;99.90
43185;DHT22;28803;52.308;19.096;2022-09-20T02:22:57;7.70;99.90
43185;DHT22;28803;52.308;19.096;2022-09-20T02:28:45;7.70;99.90
43185;DHT22;28803;52.308;19.096;2022-09-20T02:42:53;7.70;99.90
43185;DHT22;28803;52.308;19.096;2022-09-20T02:45:43;7.60;99.90
43185;DHT22;28803;52.308;19.096;2022-09-20T02:48:17;7.60;99.90
43185;DHT22;28803;52.308;19.096;2022-09-20T02:51:02;7.60;99.90
43185;DHT22;28803;52.308;19.096;2022-09-20T02:56:32;7.60;99.90
43185;DHT22;28803;52.308;19.096;2022-09-20T02:59:21;7.60;99.90
43185;DHT22;28803;52.308;19.096;2022-09-20T03:02:14;7.60;99.90
43185;DHT22;28803;52.308;19.096;2022-09-20T03:05:21;7.60;99.90
43185;DHT22;28803;52.308;19.096;2022-09-20T03:08:00;7.60;99.90
43185;DHT22;28803;52.308;19.096;2022-09-20T03:10:49;7.50;99.90
43185;DHT22;28803;52.308;19.096;2022-09-20T03:22:17;7.70;99.90
43185;DHT22;28803;52.308;19.096;2022-09-20T03:30:27;7.70;99.90
43185;DHT22;28803;52.308;19.096;2022-09-20T03:51:23;7.60;99.90
43185;DHT22;28803;52.308;19.096;2022-09-20T03:57:24;7.70;99.90
43185;DHT22;28803;52.308;19.096;2022-09-20T04:02:52;7.80;99.90
43185;DHT22;28803;52.308;19.096;2022-09-20T04:05:47;7.80;99.90
43185;DHT22;28803;52.308;19.096;2022-09-20T04:17:24;7.80;99.90
43185;DHT22;28803;52.308;19.096;2022-09-20T04:20:12;7.80;99.90
43185;DHT22;28803;52.308;19.096;2022-09-20T04:22:42;7.80;99.90
43185;DHT22;28803;52.308;19.096;2022-09-20T04:25:20;7.90;99.90
43185;DHT22;28803;52.308;19.096;2022-09-20T04:27:51;7.90;99.90
43185;DHT22;28803;52.308;19.096;2022-09-20T04:30:23;7.90;99.90
43185;DHT22;28803;52.308;19.096;2022-09-20T04:33:02;7.90;99.90
43185;DHT22;28803;52.308;19.096;2022-09-20T04:38:36;7.90;99.90
43185;DHT22;28803;52.308;19.096;2022-09-20T04:44:05;7.90;99.90
43185;DHT22;28803;52.308;19.096;2022-09-20T04:47:06;7.90;99.90
43185;DHT22;28803;52.308;19.096;2022-09-20T04:58:36;7.90;99.90
43185;DHT22;28803;52.308;19.096;2022-09-20T05:04:11;7.90;99.90
43185;DHT22;28803;52.308;19.096;2022-09-20T05:09:57;7.90;99.90
43185;DHT22;28803;52.308;19.096;2022-09-20T05:20:43;8.00;99.90
43185;DHT22;28803;52.308;19.096;2022-09-20T05:23:21;8.00;99.90
43185;DHT22;28803;52.308;19.096;2022-09-20T05:29:13;7.90;99.90
43185;DHT22;28803;52.308;19.096;2022-09-20T05:34:41;7.90;99.90
43185;DHT22;28803;52.308;19.096;2022-09-20T05:40:36;8.20;99.90
43185;DHT22;28803;52.308;19.096;2022-09-20T05:43:13;8.30;99.90
43185;DHT22;28803;52.308;19.096;2022-09-20T05:46:02;8.40;99.90
43185;DHT22;28803;52.308;19.096;2022-09-20T05:48:54;8.50;99.90
43185;DHT22;28803;52.308;19.096;2022-09-20T05:51:35;8.60;99.90
43185;DHT22;28803;52.308;19.096;2022-09-20T05:54:17;8.60;99.90
43185;DHT22;28803;52.308;19.096;2022-09-20T05:57:10;8.70;99.90
43185;DHT22;28803;52.308;19.096;2022-09-20T06:00:17;8.90;99.90
43185;DHT22;28803;52.308;19.096;2022-09-20T06:11:44;9.00;99.90
43185;DHT22;28803;52.308;19.096;2022-09-20T06:17:20;9.10;99.90
43185;DHT22;28803;52.308;19.096;2022-09-20T06:22:45;9.30;99.90
43185;DHT22;28803;52.308;19.096;2022-09-20T06:28:07;9.30;99.90
43185;DHT22;28803;52.308;19.096;2022-09-20T06:30:46;9.30;99.90
43185;DHT22;28803;52.308;19.096;2022-09-20T06:33:23;9.40;99.90
43185;DHT22;28803;52.308;19.096;2022-09-20T06:36:14;9.40;99.90
43185;DHT22;28803;52.308;19.096;2022-09-20T06:42:02;9.40;99.90
43185;DHT22;28803;52.308;19.096;2022-09-20T06:44:29;9.50;99.90
43185;DHT22;28803;52.308;19.096;2022-09-20T06:46:57;9.60;99.90
43185;DHT22;28803;52.308;19.096;2022-09-20T06:49:24;9.70;99.90
43185;DHT22;28803;52.308;19.096;2022-09-20T06:51:54;10.00;99.90
43185;DHT22;28803;52.308;19.096;2022-09-20T06:54:22;10.30;99.90
43185;DHT22;28803;52.308;19.096;2022-09-20T06:56:49;10.40;99.90
43185;DHT22;28803;52.308;19.096;2022-09-20T06:59:19;10.50;99.90
43185;DHT22;28803;52.308;19.096;2022-09-20T07:01:46;10.50;99.90
43185;DHT22;28803;52.308;19.096;2022-09-20T07:04:13;10.70;99.90
43185;DHT22;28803;52.308;19.096;2022-09-20T07:06:40;11.10;99.90
43185;DHT22;28803;52.308;19.096;2022-09-20T07:09:10;11.30;99.90
43185;DHT22;28803;52.308;19.096;2022-09-20T07:11:37;11.40;99.90
43185;DHT22;28803;52.308;19.096;2022-09-20T07:14:04;11.30;99.90
43185;DHT22;28803;52.308;19.096;2022-09-20T07:16:33;11.10;99.90
43185;DHT22;28803;52.308;19.096;2022-09-20T07:19:02;11.10;99.90
43185;DHT22;28803;52.308;19.096;2022-09-20T07:21:31;11.20;99.90
43185;DHT22;28803;52.308;19.096;2022-09-20T07:23:58;11.30;99.90
43185;DHT22;28803;52.308;19.096;2022-09-20T07:26:26;11.20;99.90
43185;DHT22;28803;52.308;19.096;2022-09-20T07:28:55;11.10;99.90
43185;DHT22;28803;52.308;19.096;2022-09-20T07:31:24;11.00;99.90
43185;DHT22;28803;52.308;19.096;2022-09-20T07:33:52;11.00;99.90
43185;DHT22;28803;52.308;19.096;2022-09-20T07:36:19;11.00;99.90
43185;DHT22;28803;52.308;19.096;2022-09-20T07:38:48;11.10;99.90
43185;DHT22;28803;52.308;19.096;2022-09-20T07:41:16;11.20;99.90
43185;DHT22;28803;52.308;19.096;2022-09-20T07:43:49;11.10;99.90
43185;DHT22;28803;52.308;19.096;2022-09-20T07:46:16;11.20;99.90
43185;DHT22;28803;52.308;19.096;2022-09-20T07:48:48;11.30;99.90
43185;DHT22;28803;52.308;19.096;2022-09-20T07:51:15;11.40;99.90
43185;DHT22;28803;52.308;19.096;2022-09-20T07:53:42;11.70;99.90
43185;DHT22;28803;52.308;19.096;2022-09-20T07:56:12;12.50;99.90
43185;DHT22;28803;52.308;19.096;2022-09-20T07:58:41;13.10;99.90
43185;DHT22;28803;52.308;19.096;2022-09-20T08:01:10;13.60;99.90
43185;DHT22;28803;52.308;19.096;2022-09-20T08:03:39;14.40;99.90
43185;DHT22;28803;52.308;19.096;2022-09-20T08:06:10;14.50;99.90
43185;DHT22;28803;52.308;19.096;2022-09-20T08:08:40;15.00;99.90
43185;DHT22;28803;52.308;19.096;2022-09-20T08:11:09;15.20;99.90
43185;DHT22;28803;52.308;19.096;2022-09-20T08:13:38;15.10;99.90
43185;DHT22;28803;52.308;19.096;2022-09-20T08:16:26;17.90;99.90
43185;DHT22;28803;52.308;19.096;2022-09-20T08:18:56;19.50;99.90
43185;DHT22;28803;52.308;19.096;2022-09-20T08:21:25;20.50;98.20
43185;DHT22;28803;52.308;19.096;2022-09-20T08:23:53;22.60;91.20
43185;DHT22;28803;52.308;19.096;2022-09-20T08:26:22;21.80;90.00
43185;DHT22;28803;52.308;19.096;2022-09-20T08:28:52;20.50;92.20
43185;DHT22;28803;52.308;19.096;2022-09-20T08:31:22;20.80;91.80
43185;DHT22;28803;52.308;19.096;2022-09-20T08:33:51;21.80;90.90
43185;DHT22;28803;52.308;19.096;2022-09-20T08:36:23;23.00;84.80
43185;DHT22;28803;52.308;19.096;2022-09-20T08:38:52;23.80;82.60
43185;DHT22;28803;52.308;19.096;2022-09-20T08:41:41;26.20;74.10
43185;DHT22;28803;52.308;19.096;2022-09-20T08:49:32;26.90;61.70
43185;DHT22;28803;52.308;19.096;2022-09-20T08:51:59;23.70;68.90
43185;DHT22;28803;52.308;19.096;2022-09-20T08:54:30;20.90;76.10
43185;DHT22;28803;52.308;19.096;2022-09-20T08:57:05;18.80;87.80
43185;DHT22;28803;52.308;19.096;2022-09-20T08:59:36;19.10;96.30
43185;DHT22;28803;52.308;19.096;2022-09-20T09:02:16;19.40;93.00
43185;DHT22;28803;52.308;19.096;2022-09-20T09:04:43;19.70;94.30
43185;DHT22;28803;52.308;19.096;2022-09-20T09:07:16;20.70;90.60
43185;DHT22;28803;52.308;19.096;2022-09-20T09:09:46;20.40;90.70
43185;DHT22;28803;52.308;19.096;2022-09-20T09:12:20;19.40;92.90
43185;DHT22;28803;52.308;19.096;2022-09-20T09:14:50;18.70;95.10
43185;DHT22;28803;52.308;19.096;2022-09-20T09:17:23;18.50;95.60
43185;DHT22;28803;52.308;19.096;2022-09-20T09:22:42;19.80;97.70
43185;DHT22;28803;52.308;19.096;2022-09-20T09:25:25;21.70;89.30
43185;DHT22;28803;52.308;19.096;2022-09-20T09:35:42;19.10;93.60
43185;DHT22;28803;52.308;19.096;2022-09-20T09:38:21;18.50;97.30
43185;DHT22;28803;52.308;19.096;2022-09-20T09:43:23;20.10;94.90
43185;DHT22;28803;52.308;19.096;2022-09-20T09:45:53;24.00;83.20
43185;DHT22;28803;52.308;19.096;2022-09-20T09:48:27;27.10;70.00
43185;DHT22;28803;52.308;19.096;2022-09-20T09:51:09;27.70;65.70
43185;DHT22;28803;52.308;19.096;2022-09-20T09:53:38;26.70;64.60
43185;DHT22;28803;52.308;19.096;2022-09-20T10:02:06;20.90;78.50
43185;DHT22;28803;52.308;19.096;2022-09-20T10:04:57;19.60;84.90
43185;DHT22;28803;52.308;19.096;2022-09-20T10:19:49;16.80;99.90
43185;DHT22;28803;52.308;19.096;2022-09-20T10:22:07;16.60;99.90
43185;DHT22;28803;52.308;19.096;2022-09-20T10:24:54;16.60;99.90
43185;DHT22;28803;52.308;19.096;2022-09-20T10:30:20;16.80;99.90
43185;DHT22;28803;52.308;19.096;2022-09-20T10:47:25;15.50;99.90
43185;DHT22;28803;52.308;19.096;2022-09-20T10:50:23;15.70;99.90
43185;DHT22;28803;52.308;19.096;2022-09-20T11:07:25;16.30;99.90
43185;DHT22;28803;52.308;19.096;2022-09-20T11:10:12;16.40;99.90
43185;DHT22;28803;52.308;19.096;2022-09-20T11:13:07;16.60;99.90
43185;DHT22;28803;52.308;19.096;2022-09-20T11:15:44;16.60;99.90
43185;DHT22;28803;52.308;19.096;2022-09-20T11:18:16;16.90;99.90
43185;DHT22;28803;52.308;19.096;2022-09-20T11:21:00;17.00;99.90
43185;DHT22;28803;52.308;19.096;2022-09-20T11:23:55;17.00;99.90
43185;DHT22;28803;52.308;19.096;2022-09-20T11:26:27;16.90;99.90
43185;DHT22;28803;52.308;19.096;2022-09-20T11:29:11;17.10;99.60
43185;DHT22;28803;52.308;19.096;2022-09-20T11:31:42;17.10;97.70
43185;DHT22;28803;52.308;19.096;2022-09-20T11:34:32;16.80;97.20
43185;DHT22;28803;52.308;19.096;2022-09-20T11:37:01;16.70;98.40
43185;DHT22;28803;52.308;19.096;2022-09-20T11:39:42;16.70;98.60
43185;DHT22;28803;52.308;19.096;2022-09-20T11:42:15;16.60;98.60
43185;DHT22;28803;52.308;19.096;2022-09-20T11:44:44;16.40;99.90
43185;DHT22;28803;52.308;19.096;2022-09-20T11:47:40;16.30;99.90
43185;DHT22;28803;52.308;19.096;2022-09-20T11:50:50;15.90;99.90
43185;DHT22;28803;52.308;19.096;2022-09-20T11:56:17;15.40;99.90
43185;DHT22;28803;52.308;19.096;2022-09-20T11:58:51;15.30;99.90
43185;DHT22;28803;52.308;19.096;2022-09-20T12:01:31;15.20;99.90
43185;DHT22;28803;52.308;19.096;2022-09-20T12:04:21;15.20;99.90
43185;DHT22;28803;52.308;19.096;2022-09-20T12:07:03;15.30;99.90
43185;DHT22;28803;52.308;19.096;2022-09-20T12:09:40;15.70;99.90
43185;DHT22;28803;52.308;19.096;2022-09-20T12:14:57;16.30;99.90
43185;DHT22;28803;52.308;19.096;2022-09-20T12:34:00;16.80;99.90
43185;DHT22;28803;52.308;19.096;2022-09-20T12:36:36;17.00;99.50
43185;DHT22;28803;52.308;19.096;2022-09-20T12:41:57;16.90;98.50
43185;DHT22;28803;52.308;19.096;2022-09-20T12:47:04;16.50;99.60
43185;DHT22;28803;52.308;19.096;2022-09-20T12:57:57;16.40;99.90
43185;DHT22;28803;52.308;19.096;2022-09-20T13:06:34;16.40;99.90
43185;DHT22;28803;52.308;19.096;2022-09-20T13:11:29;16.50;99.90
43185;DHT22;28803;52.308;19.096;2022-09-20T13:14:09;16.40;99.90
43185;DHT22;28803;52.308;19.096;2022-09-20T13:22:05;16.10;99.90
43185;DHT22;28803;52.308;19.096;2022-09-20T13:24:40;16.00;99.90
43185;DHT22;28803;52.308;19.096;2022-09-20T13:27:08;15.90;99.90
43185;DHT22;28803;52.308;19.096;2022-09-20T13:29:42;15.70;99.90
43185;DHT22;28803;52.308;19.096;2022-09-20T13:32:30;15.30;99.90
43185;DHT22;28803;52.308;19.096;2022-09-20T13:37:37;14.00;99.90
43185;DHT22;28803;52.308;19.096;2022-09-20T13:40:23;13.70;99.90
43185;DHT22;28803;52.308;19.096;2022-09-20T13:42:52;13.50;99.90
43185;DHT22;28803;52.308;19.096;2022-09-20T13:45:45;13.20;99.90
43185;DHT22;28803;52.308;19.096;2022-09-20T13:48:15;12.90;99.90
43185;DHT22;28803;52.308;19.096;2022-09-20T13:50:42;12.70;99.90
43185;DHT22;28803;52.308;19.096;2022-09-20T13:53:17;12.70;99.90
43185;DHT22;28803;52.308;19.096;2022-09-20T13:56:10;12.50;99.90
43185;DHT22;28803;52.308;19.096;2022-09-20T13:58:42;12.50;99.90
43185;DHT22;28803;52.308;19.096;2022-09-20T14:03:48;12.50;99.90
43185;DHT22;28803;52.308;19.096;2022-09-20T14:06:15;12.60;99.90
43185;DHT22;28803;52.308;19.096;2022-09-20T14:08:48;12.80;99.90
43185;DHT22;28803;52.308;19.096;2022-09-20T14:11:21;13.00;99.90
43185;DHT22;28803;52.308;19.096;2022-09-20T14:13:54;13.30;99.90
43185;DHT22;28803;52.308;19.096;2022-09-20T14:16:26;13.50;99.90
43185;DHT22;28803;52.308;19.096;2022-09-20T14:18:54;13.70;99.90
43185;DHT22;28803;52.308;19.096;2022-09-20T14:21:26;13.90;99.90
43185;DHT22;28803;52.308;19.096;2022-09-20T14:23:58;14.00;99.90
43185;DHT22;28803;52.308;19.096;2022-09-20T14:26:36;14.30;99.90
43185;DHT22;28803;52.308;19.096;2022-09-20T14:34:49;14.50;99.90
43185;DHT22;28803;52.308;19.096;2022-09-20T14:40:03;14.50;99.90
43185;DHT22;28803;52.308;19.096;2022-09-20T14:42:41;14.50;99.90
43185;DHT22;28803;52.308;19.096;2022-09-20T14:45:28;14.50;99.90
43185;DHT22;28803;52.308;19.096;2022-09-20T14:50:35;14.50;99.90
43185;DHT22;28803;52.308;19.096;2022-09-20T15:01:34;14.60;99.90
43185;DHT22;28803;52.308;19.096;2022-09-20T15:04:07;14.60;99.90
43185;DHT22;28803;52.308;19.096;2022-09-20T15:06:37;14.60;99.90
43185;DHT22;28803;52.308;19.096;2022-09-20T15:09:07;14.60;99.90
43185;DHT22;28803;52.308;19.096;2022-09-20T15:11:35;14.60;99.90
43185;DHT22;28803;52.308;19.096;2022-09-20T15:14:02;14.60;99.90
43185;DHT22;28803;52.308;19.096;2022-09-20T15:16:29;14.60;99.90
43185;DHT22;28803;52.308;19.096;2022-09-20T15:18:57;14.60;99.90
43185;DHT22;28803;52.308;19.096;2022-09-20T15:21:25;14.60;99.90
43185;DHT22;28803;52.308;19.096;2022-09-20T15:23:52;14.60;99.90
43185;DHT22;28803;52.308;19.096;2022-09-20T15:26:20;14.60;99.90
43185;DHT22;28803;52.308;19.096;2022-09-20T15:28:47;14.50;99.90
43185;DHT22;28803;52.308;19.096;2022-09-20T15:31:14;14.50;99.90
43185;DHT22;28803;52.308;19.096;2022-09-20T15:33:42;14.50;99.90
43185;DHT22;28803;52.308;19.096;2022-09-20T15:36:09;14.50;99.90
43185;DHT22;28803;52.308;19.096;2022-09-20T15:38:37;14.50;99.90
43185;DHT22;28803;52.308;19.096;2022-09-20T15:41:04;14.40;99.90
43185;DHT22;28803;52.308;19.096;2022-09-20T15:43:31;14.30;99.90
43185;DHT22;28803;52.308;19.096;2022-09-20T15:46:15;14.20;99.90
43185;DHT22;28803;52.308;19.096;2022-09-20T15:48:42;14.20;99.90
43185;DHT22;28803;52.308;19.096;2022-09-20T15:51:10;14.10;99.90
43185;DHT22;28803;52.308;19.096;2022-09-20T15:53:49;14.00;99.90
43185;DHT22;28803;52.308;19.096;2022-09-20T15:56:24;13.90;99.90
43185;DHT22;28803;52.308;19.096;2022-09-20T15:58:54;13.70;99.90
43185;DHT22;28803;52.308;19.096;2022-09-20T16:01:27;13.60;99.90
43185;DHT22;28803;52.308;19.096;2022-09-20T16:03:55;13.50;99.90
43185;DHT22;28803;52.308;19.096;2022-09-20T16:06:23;13.30;99.90
43185;DHT22;28803;52.308;19.096;2022-09-20T16:08:51;13.20;99.90
43185;DHT22;28803;52.308;19.096;2022-09-20T16:11:20;13.10;99.90
43185;DHT22;28803;52.308;19.096;2022-09-20T16:13:56;13.00;99.90
43185;DHT22;28803;52.308;19.096;2022-09-20T16:16:25;12.90;99.90
43185;DHT22;28803;52.308;19.096;2022-09-20T16:18:52;12.80;99.90
43185;DHT22;28803;52.308;19.096;2022-09-20T16:21:39;12.70;99.90
43185;DHT22;28803;52.308;19.096;2022-09-20T16:24:07;12.60;99.90
43185;DHT22;28803;52.308;19.096;2022-09-20T16:26:35;12.50;99.90
43185;DHT22;28803;52.308;19.096;2022-09-20T16:29:03;12.40;99.90
43185;DHT22;28803;52.308;19.096;2022-09-20T16:34:02;12.20;99.90
43185;DHT22;28803;52.308;19.096;2022-09-20T16:36:31;12.10;99.90
43185;DHT22;28803;52.308;19.096;2022-09-20T16:38:59;12.00;99.90
43185;DHT22;28803;52.308;19.096;2022-09-20T16:41:27;11.90;99.90
43185;DHT22;28803;52.308;19.096;2022-09-20T16:43:54;11.70;99.90
43185;DHT22;28803;52.308;19.096;2022-09-20T16:46:23;11.60;99.90
43185;DHT22;28803;52.308;19.096;2022-09-20T16:48:56;11.50;99.90
43185;DHT22;28803;52.308;19.096;2022-09-20T16:51:34;11.40;99.90
43185;DHT22;28803;52.308;19.096;2022-09-20T16:54:04;11.30;99.90
43185;DHT22;28803;52.308;19.096;2022-09-20T16:56:33;11.20;99.90
43185;DHT22;28803;52.308;19.096;2022-09-20T16:59:02;11.10;99.90
43185;DHT22;28803;52.308;19.096;2022-09-20T17:01:30;11.00;99.90
43185;DHT22;28803;52.308;19.096;2022-09-20T17:03:59;10.90;99.90
43185;DHT22;28803;52.308;19.096;2022-09-20T17:06:32;10.90;99.90
43185;DHT22;28803;52.308;19.096;2022-09-20T17:09:04;10.80;99.90
43185;DHT22;28803;52.308;19.096;2022-09-20T17:11:35;10.70;99.90
43185;DHT22;28803;52.308;19.096;2022-09-20T17:14:03;10.70;99.90
43185;DHT22;28803;52.308;19.096;2022-09-20T17:16:35;10.60;99.90
43185;DHT22;28803;52.308;19.096;2022-09-20T17:19:11;10.50;99.90
43185;DHT22;28803;52.308;19.096;2022-09-20T17:21:40;10.50;99.90
43185;DHT22;28803;52.308;19.096;2022-09-20T17:24:11;10.40;99.90
43185;DHT22;28803;52.308;19.096;2022-09-20T17:26:41;10.30;99.90
43185;DHT22;28803;52.308;19.096;2022-09-20T17:29:12;10.20;99.90
43185;DHT22;28803;52.308;19.096;2022-09-20T17:31:43;10.10;99.90
43185;DHT22;28803;52.308;19.096;2022-09-20T17:34:17;10.00;99.90
43185;DHT22;28803;52.308;19.096;2022-09-20T17:36:48;10.00;99.90
43185;DHT22;28803;52.308;19.096;2022-09-20T17:39:16;11.20;99.90
43185;DHT22;28803;52.308;19.096;2022-09-20T17:41:45;9.90;99.90
43185;DHT22;28803;52.308;19.096;2022-09-20T17:44:13;9.90;99.90
43185;DHT22;28803;52.308;19.096;2022-09-20T17:46:42;9.90;99.90
43185;DHT22;28803;52.308;19.096;2022-09-20T17:49:12;9.90;99.90
43185;DHT22;28803;52.308;19.096;2022-09-20T17:51:46;9.90;99.90
43185;DHT22;28803;52.308;19.096;2022-09-20T17:54:14;9.80;99.90
43185;DHT22;28803;52.308;19.096;2022-09-20T17:56:44;9.80;99.90
43185;DHT22;28803;52.308;19.096;2022-09-20T17:59:13;9.70;99.90
43185;DHT22;28803;52.308;19.096;2022-09-20T18:01:47;9.60;99.90
43185;DHT22;28803;52.308;19.096;2022-09-20T18:04:15;9.70;99.90
43185;DHT22;28803;52.308;19.096;2022-09-20T18:06:50;9.60;99.90
43185;DHT22;28803;52.308;19.096;2022-09-20T18:09:20;9.60;99.90
43185;DHT22;28803;52.308;19.096;2022-09-20T18:11:49;9.70;99.90
43185;DHT22;28803;52.308;19.096;2022-09-20T18:14:22;9.60;99.90
43185;DHT22;28803;52.308;19.096;2022-09-20T18:16:54;9.70;99.90
43185;DHT22;28803;52.308;19.096;2022-09-20T18:19:24;9.60;99.90
43185;DHT22;28803;52.308;19.096;2022-09-20T18:21:59;9.60;99.90
43185;DHT22;28803;52.308;19.096;2022-09-20T18:24:26;9.60;99.90
43185;DHT22;28803;52.308;19.096;2022-09-20T18:26:52;9.60;99.90
43185;DHT22;28803;52.308;19.096;2022-09-20T18:29:20;9.50;99.90
43185;DHT22;28803;52.308;19.096;2022-09-20T18:31:51;9.50;99.90
43185;DHT22;28803;52.308;19.096;2022-09-20T18:34:22;9.60;99.90
43185;DHT22;28803;52.308;19.096;2022-09-20T18:36:52;9.70;99.90
43185;DHT22;28803;52.308;19.096;2022-09-20T18:39:23;9.80;99.90
43185;DHT22;28803;52.308;19.096;2022-09-20T18:41:51;9.80;99.90
43185;DHT22;28803;52.308;19.096;2022-09-20T18:44:20;9.70;99.90
43185;DHT22;28803;52.308;19.096;2022-09-20T18:46:47;9.70;99.90
43185;DHT22;28803;52.308;19.096;2022-09-20T18:49:15;9.70;99.90
43185;DHT22;28803;52.308;19.096;2022-09-20T18:51:43;9.70;99.90
43185;DHT22;28803;52.308;19.096;2022-09-20T18:54:11;9.70;99.90
43185;DHT22;28803;52.308;19.096;2022-09-20T18:56:40;9.60;99.90
43185;DHT22;28803;52.308;19.096;2022-09-20T18:59:19;9.60;99.90
43185;DHT22;28803;52.308;19.096;2022-09-20T19:07:21;9.40;99.90
43185;DHT22;28803;52.308;19.096;2022-09-20T19:15:17;9.60;99.90
43185;DHT22;28803;52.308;19.096;2022-09-20T19:26:22;9.60;99.90
43185;DHT22;28803;52.308;19.096;2022-09-20T19:28:52;9.60;99.90
43185;DHT22;28803;52.308;19.096;2022-09-20T19:31:22;9.60;99.90
43185;DHT22;28803;52.308;19.096;2022-09-20T19:33:50;9.50;99.90
43185;DHT22;28803;52.308;19.096;2022-09-20T19:36:27;9.50;99.90
43185;DHT22;28803;52.308;19.096;2022-09-20T19:39:18;9.50;99.90
43185;DHT22;28803;52.308;19.096;2022-09-20T19:42:17;9.40;99.90
43185;DHT22;28803;52.308;19.096;2022-09-20T19:44:56;9.40;99.90
43185;DHT22;28803;52.308;19.096;2022-09-20T19:53:00;9.20;99.90
43185;DHT22;28803;52.308;19.096;2022-09-20T19:55:31;9.20;99.90
43185;DHT22;28803;52.308;19.096;2022-09-20T19:57:59;9.20;99.90
43185;DHT22;28803;52.308;19.096;2022-09-20T20:00:27;9.20;99.90
43185;DHT22;28803;52.308;19.096;2022-09-20T20:02:54;9.20;99.90
43185;DHT22;28803;52.308;19.096;2022-09-20T20:05:21;9.20;99.90
43185;DHT22;28803;52.308;19.096;2022-09-20T20:08:13;9.20;99.90
43185;DHT22;28803;52.308;19.096;2022-09-20T20:11:02;9.20;99.90
43185;DHT22;28803;52.308;19.096;2022-09-20T20:19:38;9.10;99.90
43185;DHT22;28803;52.308;19.096;2022-09-20T20:22:31;8.10;99.90
43185;DHT22;28803;52.308;19.096;2022-09-20T20:25:02;9.10;99.90
43185;DHT22;28803;52.308;19.096;2022-09-20T20:27:28;9.00;99.90
43185;DHT22;28803;52.308;19.096;2022-09-20T20:29:58;9.00;99.90
43185;DHT22;28803;52.308;19.096;2022-09-20T20:32:26;9.00;99.90
43185;DHT22;28803;52.308;19.096;2022-09-20T20:34:53;9.00;99.90
43185;DHT22;28803;52.308;19.096;2022-09-20T20:37:20;9.10;99.90
43185;DHT22;28803;52.308;19.096;2022-09-20T20:39:50;9.10;99.90
43185;DHT22;28803;52.308;19.096;2022-09-20T20:42:17;9.10;99.90
43185;DHT22;28803;52.308;19.096;2022-09-20T20:44:45;9.00;99.90
43185;DHT22;28803;52.308;19.096;2022-09-20T20:47:13;9.00;99.90
43185;DHT22;28803;52.308;19.096;2022-09-20T20:49:40;9.00;99.90
43185;DHT22;28803;52.308;19.096;2022-09-20T20:52:08;9.00;99.90
43185;DHT22;28803;52.308;19.096;2022-09-20T20:54:35;8.90;99.90
43185;DHT22;28803;52.308;19.096;2022-09-20T20:57:03;8.90;99.90
43185;DHT22;28803;52.308;19.096;2022-09-20T20:59:30;8.80;99.90
43185;DHT22;28803;52.308;19.096;2022-09-20T21:01:57;8.80;99.90
43185;DHT22;28803;52.308;19.096;2022-09-20T21:04:24;8.80;99.90
43185;DHT22;28803;52.308;19.096;2022-09-20T21:06:53;8.80;99.90
43185;DHT22;28803;52.308;19.096;2022-09-20T21:09:20;8.70;99.90
43185;DHT22;28803;52.308;19.096;2022-09-20T21:11:47;8.70;99.90
43185;DHT22;28803;52.308;19.096;2022-09-20T21:14:14;8.70;99.90
43185;DHT22;28803;52.308;19.096;2022-09-20T21:16:42;8.70;99.90
43185;DHT22;28803;52.308;19.096;2022-09-20T21:19:11;8.70;99.90
43185;DHT22;28803;52.308;19.096;2022-09-20T21:21:42;8.60;99.90
43185;DHT22;28803;52.308;19.096;2022-09-20T21:24:12;8.60;99.90
43185;DHT22;28803;52.308;19.096;2022-09-20T21:26:40;8.60;99.90
43185;DHT22;28803;52.308;19.096;2022-09-20T21:29:12;8.60;99.90
43185;DHT22;28803;52.308;19.096;2022-09-20T21:31:42;8.50;99.90
43185;DHT22;28803;52.308;19.096;2022-09-20T21:34:11;8.50;99.90
43185;DHT22;28803;52.308;19.096;2022-09-20T21:36:39;8.50;99.90
43185;DHT22;28803;52.308;19.096;2022-09-20T21:39:10;8.40;99.90